sensor_id;sensor_type;location;lat;lon;timestamp;temperature;humidity
8856;DHT22;4464;50.882;4.730;2023-02-26T00:00:12;1.00;99.90
8856;DHT22;4464;50.882;4.730;2023-02-26T00:02:44;1.00;99.90
8856;DHT22;4464;50.882;4.730;2023-02-26T00:05:12;1.00;99.90
8856;DHT22;4464;50.882;4.730;2023-02-26T00:07:43;1.00;99.90
8856;DHT22;4464;50.882;4.730;2023-02-26T00:10:13;0.90;99.90
8856;DHT22;4464;50.882;4.730;2023-02-26T00:12:43;0.90;99.90
8856;DHT22;4464;50.882;4.730;2023-02-26T00:15:11;0.80;99.90
8856;DHT22;4464;50.882;4.730;2023-02-26T00:20:09;0.80;99.90
8856;DHT22;4464;50.882;4.730;2023-02-26T00:22:37;0.80;99.90
8856;DHT22;4464;50.882;4.730;2023-02-26T00:25:04;0.70;99.90
8856;DHT22;4464;50.882;4.730;2023-02-26T00:27:34;0.70;99.90
8856;DHT22;4464;50.882;4.730;2023-02-26T00:30:03;0.70;99.90
8856;DHT22;4464;50.882;4.730;2023-02-26T00:32:29;0.80;99.90
8856;DHT22;4464;50.882;4.730;2023-02-26T00:34:58;0.90;99.90
8856;DHT22;4464;50.882;4.730;2023-02-26T00:42:59;0.80;99.90
8856;DHT22;4464;50.882;4.730;2023-02-26T00:45:25;0.80;99.90
8856;DHT22;4464;50.882;4.730;2023-02-26T00:48:13;0.70;99.90
8856;DHT22;4464;50.882;4.730;2023-02-26T00:50:58;0.70;99.90
8856;DHT22;4464;50.882;4.730;2023-02-26T00:53:30;0.70;99.90
8856;DHT22;4464;50.882;4.730;2023-02-26T00:55:58;0.70;99.90
8856;DHT22;4464;50.882;4.730;2023-02-26T00:58:23;0.70;99.90
8856;DHT22;4464;50.882;4.730;2023-02-26T01:00:49;0.70;99.90
8856;DHT22;4464;50.882;4.730;2023-02-26T01:03:15;0.70;99.90
8856;DHT22;4464;50.882;4.730;2023-02-26T01:05:41;0.60;99.90
8856;DHT22;4464;50.882;4.730;2023-02-26T01:08:20;0.60;99.90
8856;DHT22;4464;50.882;4.730;2023-02-26T01:10:47;0.60;99.90
8856;DHT22;4464;50.882;4.730;2023-02-26T01:13:16;0.60;99.90
8856;DHT22;4464;50.882;4.730;2023-02-26T01:15:47;0.50;99.90
8856;DHT22;4464;50.882;4.730;2023-02-26T01:18:30;0.50;99.90
8856;DHT22;4464;50.882;4.730;2023-02-26T01:21:03;0.50;99.90
8856;DHT22;4464;50.882;4.730;2023-02-26T01:23:39;0.50;99.90
8856;DHT22;4464;50.882;4.730;2023-02-26T01:28:44;0.50;99.90
8856;DHT22;4464;50.882;4.730;2023-02-26T01:34:30;0.40;99.90
8856;DHT22;4464;50.882;4.730;2023-02-26T01:37:11;0.40;99.90
8856;DHT22;4464;50.882;4.730;2023-02-26T01:45:10;0.20;99.90
8856;DHT22;4464;50.882;4.730;2023-02-26T01:47:50;0.30;99.90
8856;DHT22;4464;50.882;4.730;2023-02-26T01:50:21;0.30;99.90
8856;DHT22;4464;50.882;4.730;2023-02-26T01:53:21;0.30;99.90
8856;DHT22;4464;50.882;4.730;2023-02-26T01:56:02;0.20;99.90
8856;DHT22;4464;50.882;4.730;2023-02-26T01:58:32;0.20;99.90
8856;DHT22;4464;50.882;4.730;2023-02-26T02:01:01;0.30;99.90
8856;DHT22;4464;50.882;4.730;2023-02-26T02:03:31;0.40;99.90
8856;DHT22;4464;50.882;4.730;2023-02-26T02:06:03;0.50;99.90
8856;DHT22;4464;50.882;4.730;2023-02-26T02:08:33;0.50;99.90
8856;DHT22;4464;50.882;4.730;2023-02-26T02:11:02;0.50;99.90
8856;DHT22;4464;50.882;4.730;2023-02-26T02:13:37;0.60;99.90
8856;DHT22;4464;50.882;4.730;2023-02-26T02:18:42;0.90;99.90
8856;DHT22;4464;50.882;4.730;2023-02-26T02:24:24;1.10;99.90
8856;DHT22;4464;50.882;4.730;2023-02-26T02:29:30;1.10;99.90
8856;DHT22;4464;50.882;4.730;2023-02-26T02:32:19;1.00;99.90
8856;DHT22;4464;50.882;4.730;2023-02-26T02:34:57;1.10;99.90
8856;DHT22;4464;50.882;4.730;2023-02-26T02:37:45;1.10;99.90
8856;DHT22;4464;50.882;4.730;2023-02-26T02:40:21;1.00;99.90
8856;DHT22;4464;50.882;4.730;2023-02-26T02:45:40;0.90;99.90
8856;DHT22;4464;50.882;4.730;2023-02-26T02:50:50;0.60;99.90
8856;DHT22;4464;50.882;4.730;2023-02-26T02:56:11;0.50;99.90
8856;DHT22;4464;50.882;4.730;2023-02-26T02:58:50;0.50;99.90
8856;DHT22;4464;50.882;4.730;2023-02-26T03:01:20;0.40;99.90
8856;DHT22;4464;50.882;4.730;2023-02-26T03:03:59;0.40;99.90
8856;DHT22;4464;50.882;4.730;2023-02-26T03:06:26;0.40;99.90
8856;DHT22;4464;50.882;4.730;2023-02-26T03:08:55;0.40;99.90
8856;DHT22;4464;50.882;4.730;2023-02-26T03:11:23;0.30;99.90
8856;DHT22;4464;50.882;4.730;2023-02-26T03:13:49;0.30;99.90
8856;DHT22;4464;50.882;4.730;2023-02-26T03:19:58;0.20;99.90
8856;DHT22;4464;50.882;4.730;2023-02-26T03:25:22;0.20;99.90
8856;DHT22;4464;50.882;4.730;2023-02-26T03:28:11;0.20;99.90
8856;DHT22;4464;50.882;4.730;2023-02-26T03:30:53;0.20;99.90
8856;DHT22;4464;50.882;4.730;2023-02-26T03:44:36;0.10;99.90
8856;DHT22;4464;50.882;4.730;2023-02-26T03:47:07;0.10;99.90
8856;DHT22;4464;50.882;4.730;2023-02-26T03:49:43;0.10;99.90
8856;DHT22;4464;50.882;4.730;2023-02-26T03:52:11;0.00;99.90
8856;DHT22;4464;50.882;4.730;2023-02-26T03:57:22;0.00;99.90
8856;DHT22;4464;50.882;4.730;2023-02-26T03:59:50;0.00;99.90
8856;DHT22;4464;50.882;4.730;2023-02-26T04:02:26;0.00;99.90
8856;DHT22;4464;50.882;4.730;2023-02-26T04:05:24;-0.10;99.90
8856;DHT22;4464;50.882;4.730;2023-02-26T04:07:51;-0.10;99.90
8856;DHT22;4464;50.882;4.730;2023-02-26T04:10:24;0.00;99.90
8856;DHT22;4464;50.882;4.730;2023-02-26T04:12:51;-0.10;99.90
8856;DHT22;4464;50.882;4.730;2023-02-26T04:15:17;-0.10;99.90
8856;DHT22;4464;50.882;4.730;2023-02-26T04:17:43;-0.10;99.90
8856;DHT22;4464;50.882;4.730;2023-02-26T04:20:11;-0.10;99.90
8856;DHT22;4464;50.882;4.730;2023-02-26T04:22:37;-0.10;99.90
8856;DHT22;4464;50.882;4.730;2023-02-26T04:25:05;-0.10;99.90
8856;DHT22;4464;50.882;4.730;2023-02-26T04:27:31;-0.20;99.90
8856;DHT22;4464;50.882;4.730;2023-02-26T04:29:59;-0.20;99.90
8856;DHT22;4464;50.882;4.730;2023-02-26T04:32:27;-0.20;99.90
8856;DHT22;4464;50.882;4.730;2023-02-26T04:34:53;-0.20;99.90
8856;DHT22;4464;50.882;4.730;2023-02-26T04:37:21;-0.20;99.90
8856;DHT22;4464;50.882;4.730;2023-02-26T04:39:49;-0.20;99.90
8856;DHT22;4464;50.882;4.730;2023-02-26T04:42:15;-0.20;99.90
8856;DHT22;4464;50.882;4.730;2023-02-26T04:44:43;-0.20;99.90
8856;DHT22;4464;50.882;4.730;2023-02-26T04:47:11;-0.20;99.90
8856;DHT22;4464;50.882;4.730;2023-02-26T04:49:39;-0.20;99.90
8856;DHT22;4464;50.882;4.730;2023-02-26T04:52:07;-0.30;99.90
8856;DHT22;4464;50.882;4.730;2023-02-26T04:54:33;-0.30;99.90
8856;DHT22;4464;50.882;4.730;2023-02-26T04:56:59;-0.30;99.90
8856;DHT22;4464;50.882;4.730;2023-02-26T04:59:27;-0.30;99.90
8856;DHT22;4464;50.882;4.730;2023-02-26T05:01:53;-0.30;99.90
8856;DHT22;4464;50.882;4.730;2023-02-26T05:04:19;-0.30;99.90
8856;DHT22;4464;50.882;4.730;2023-02-26T05:06:44;-0.30;99.90
8856;DHT22;4464;50.882;4.730;2023-02-26T05:09:10;-0.20;99.90
8856;DHT22;4464;50.882;4.730;2023-02-26T05:11:36;-0.20;99.90
8856;DHT22;4464;50.882;4.730;2023-02-26T05:14:02;-0.20;99.90
8856;DHT22;4464;50.882;4.730;2023-02-26T05:16:28;-0.20;99.90
8856;DHT22;4464;50.882;4.730;2023-02-26T05:18:56;-0.20;99.90
8856;DHT22;4464;50.882;4.730;2023-02-26T05:21:22;-0.20;99.90
8856;DHT22;4464;50.882;4.730;2023-02-26T05:23:48;-0.20;99.90
8856;DHT22;4464;50.882;4.730;2023-02-26T05:26:16;-0.30;99.90
8856;DHT22;4464;50.882;4.730;2023-02-26T05:28:42;-0.30;99.90
8856;DHT22;4464;50.882;4.730;2023-02-26T05:31:11;-0.30;99.90
8856;DHT22;4464;50.882;4.730;2023-02-26T05:33:44;-0.30;99.90
8856;DHT22;4464;50.882;4.730;2023-02-26T05:36:12;-0.30;99.90
8856;DHT22;4464;50.882;4.730;2023-02-26T05:38:38;-0.30;99.90
8856;DHT22;4464;50.882;4.730;2023-02-26T05:41:04;-0.30;99.90
8856;DHT22;4464;50.882;4.730;2023-02-26T05:43:30;-0.40;99.90
8856;DHT22;4464;50.882;4.730;2023-02-26T05:45:58;-0.40;99.90
8856;DHT22;4464;50.882;4.730;2023-02-26T05:48:26;-0.30;99.90
8856;DHT22;4464;50.882;4.730;2023-02-26T05:50:55;-0.40;99.90
8856;DHT22;4464;50.882;4.730;2023-02-26T05:53:20;-0.40;99.90
8856;DHT22;4464;50.882;4.730;2023-02-26T05:55:46;-0.30;99.90
8856;DHT22;4464;50.882;4.730;2023-02-26T05:58:17;-0.40;99.90
8856;DHT22;4464;50.882;4.730;2023-02-26T06:00:43;-0.40;99.90
8856;DHT22;4464;50.882;4.730;2023-02-26T06:03:11;-0.40;99.90
8856;DHT22;4464;50.882;4.730;2023-02-26T06:05:39;-0.40;99.90
8856;DHT22;4464;50.882;4.730;2023-02-26T06:08:05;-0.50;99.90
8856;DHT22;4464;50.882;4.730;2023-02-26T06:10:31;-0.50;99.90
8856;DHT22;4464;50.882;4.730;2023-02-26T06:13:02;-0.50;99.90
8856;DHT22;4464;50.882;4.730;2023-02-26T06:15:28;-0.50;99.90
8856;DHT22;4464;50.882;4.730;2023-02-26T06:17:56;-0.50;99.90
8856;DHT22;4464;50.882;4.730;2023-02-26T06:20:22;-0.60;99.90
8856;DHT22;4464;50.882;4.730;2023-02-26T06:22:48;-0.50;99.90
8856;DHT22;4464;50.882;4.730;2023-02-26T06:25:13;-0.60;99.90
8856;DHT22;4464;50.882;4.730;2023-02-26T06:27:39;-0.60;99.90
8856;DHT22;4464;50.882;4.730;2023-02-26T06:30:06;-0.60;99.90
8856;DHT22;4464;50.882;4.730;2023-02-26T06:32:31;-0.60;99.90
8856;DHT22;4464;50.882;4.730;2023-02-26T06:34:58;-0.60;99.90
8856;DHT22;4464;50.882;4.730;2023-02-26T06:37:26;-0.60;99.90
8856;DHT22;4464;50.882;4.730;2023-02-26T06:39:52;-0.60;99.90
8856;DHT22;4464;50.882;4.730;2023-02-26T06:42:20;-0.70;99.90
8856;DHT22;4464;50.882;4.730;2023-02-26T06:44:47;-0.70;99.90
8856;DHT22;4464;50.882;4.730;2023-02-26T06:47:13;-0.70;99.90
8856;DHT22;4464;50.882;4.730;2023-02-26T06:49:39;-0.70;99.90
8856;DHT22;4464;50.882;4.730;2023-02-26T06:52:05;-0.70;99.90
8856;DHT22;4464;50.882;4.730;2023-02-26T06:54:32;-0.60;99.90
8856;DHT22;4464;50.882;4.730;2023-02-26T06:56:58;-0.70;99.90
8856;DHT22;4464;50.882;4.730;2023-02-26T06:59:26;-0.70;99.90
8856;DHT22;4464;50.882;4.730;2023-02-26T07:01:54;-0.70;99.90
8856;DHT22;4464;50.882;4.730;2023-02-26T07:04:22;-0.60;99.90
8856;DHT22;4464;50.882;4.730;2023-02-26T07:06:53;-0.60;99.90
8856;DHT22;4464;50.882;4.730;2023-02-26T07:09:18;-0.50;99.90
8856;DHT22;4464;50.882;4.730;2023-02-26T07:11:44;-0.50;99.90
8856;DHT22;4464;50.882;4.730;2023-02-26T07:14:10;-0.40;99.90
8856;DHT22;4464;50.882;4.730;2023-02-26T07:16:36;-0.40;99.90
8856;DHT22;4464;50.882;4.730;2023-02-26T07:19:02;-0.40;99.90
8856;DHT22;4464;50.882;4.730;2023-02-26T07:21:28;-0.40;99.90
8856;DHT22;4464;50.882;4.730;2023-02-26T07:23:56;-0.30;99.90
8856;DHT22;4464;50.882;4.730;2023-02-26T07:26:24;-0.20;99.90
8856;DHT22;4464;50.882;4.730;2023-02-26T07:28:49;-0.20;99.90
8856;DHT22;4464;50.882;4.730;2023-02-26T07:31:15;-0.10;99.90
8856;DHT22;4464;50.882;4.730;2023-02-26T07:33:43;0.00;99.90
8856;DHT22;4464;50.882;4.730;2023-02-26T07:36:11;0.00;99.90
8856;DHT22;4464;50.882;4.730;2023-02-26T07:38:37;0.10;99.90
8856;DHT22;4464;50.882;4.730;2023-02-26T07:41:03;0.20;99.90
8856;DHT22;4464;50.882;4.730;2023-02-26T07:43:31;0.40;99.90
8856;DHT22;4464;50.882;4.730;2023-02-26T07:45:59;0.70;99.90
8856;DHT22;4464;50.882;4.730;2023-02-26T07:48:25;1.00;99.90
8856;DHT22;4464;50.882;4.730;2023-02-26T07:50:52;1.30;99.90
8856;DHT22;4464;50.882;4.730;2023-02-26T07:53:18;1.60;99.90
8856;DHT22;4464;50.882;4.730;2023-02-26T07:55:44;1.90;99.90
8856;DHT22;4464;50.882;4.730;2023-02-26T07:58:10;2.20;99.90
8856;DHT22;4464;50.882;4.730;2023-02-26T08:00:37;2.60;99.90
8856;DHT22;4464;50.882;4.730;2023-02-26T08:03:03;2.90;99.90
8856;DHT22;4464;50.882;4.730;2023-02-26T08:05:31;3.40;99.90
8856;DHT22;4464;50.882;4.730;2023-02-26T08:08:00;3.70;99.90
8856;DHT22;4464;50.882;4.730;2023-02-26T08:10:26;4.00;99.90
8856;DHT22;4464;50.882;4.730;2023-02-26T08:12:52;4.10;99.90
8856;DHT22;4464;50.882;4.730;2023-02-26T08:15:18;4.20;99.90
8856;DHT22;4464;50.882;4.730;2023-02-26T08:17:44;4.70;99.90
8856;DHT22;4464;50.882;4.730;2023-02-26T08:20:10;4.80;99.90
8856;DHT22;4464;50.882;4.730;2023-02-26T08:22:37;5.00;99.90
8856;DHT22;4464;50.882;4.730;2023-02-26T08:25:03;5.00;99.90
8856;DHT22;4464;50.882;4.730;2023-02-26T08:27:31;5.00;99.90
8856;DHT22;4464;50.882;4.730;2023-02-26T08:30:00;5.30;99.90
8856;DHT22;4464;50.882;4.730;2023-02-26T08:32:26;5.70;99.90
8856;DHT22;4464;50.882;4.730;2023-02-26T08:34:52;5.90;99.90
8856;DHT22;4464;50.882;4.730;2023-02-26T08:37:18;5.70;99.90
8856;DHT22;4464;50.882;4.730;2023-02-26T08:39:47;5.90;99.90
8856;DHT22;4464;50.882;4.730;2023-02-26T08:42:18;6.30;99.90
8856;DHT22;4464;50.882;4.730;2023-02-26T08:44:46;6.80;99.60
8856;DHT22;4464;50.882;4.730;2023-02-26T08:47:12;6.70;98.40
8856;DHT22;4464;50.882;4.730;2023-02-26T08:49:38;6.90;98.20
8856;DHT22;4464;50.882;4.730;2023-02-26T08:52:04;6.80;98.30
8856;DHT22;4464;50.882;4.730;2023-02-26T08:54:35;6.60;97.50
8856;DHT22;4464;50.882;4.730;2023-02-26T08:57:00;6.90;97.90
8856;DHT22;4464;50.882;4.730;2023-02-26T08:59:27;6.60;97.60
8856;DHT22;4464;50.882;4.730;2023-02-26T09:01:53;6.80;97.80
8856;DHT22;4464;50.882;4.730;2023-02-26T09:04:21;7.00;97.40
8856;DHT22;4464;50.882;4.730;2023-02-26T09:06:48;6.80;97.30
8856;DHT22;4464;50.882;4.730;2023-02-26T09:09:17;7.00;97.20
8856;DHT22;4464;50.882;4.730;2023-02-26T09:11:44;7.00;97.00
8856;DHT22;4464;50.882;4.730;2023-02-26T09:14:10;7.30;96.80
8856;DHT22;4464;50.882;4.730;2023-02-26T09:16:38;7.20;96.70
8856;DHT22;4464;50.882;4.730;2023-02-26T09:19:08;7.50;96.60
8856;DHT22;4464;50.882;4.730;2023-02-26T09:21:36;7.70;96.30
8856;DHT22;4464;50.882;4.730;2023-02-26T09:24:05;8.10;95.80
8856;DHT22;4464;50.882;4.730;2023-02-26T09:26:31;8.50;95.80
8856;DHT22;4464;50.882;4.730;2023-02-26T09:28:59;8.90;95.30
8856;DHT22;4464;50.882;4.730;2023-02-26T09:31:25;8.90;94.80
8856;DHT22;4464;50.882;4.730;2023-02-26T09:33:50;8.50;93.90
8856;DHT22;4464;50.882;4.730;2023-02-26T09:36:16;8.10;94.60
8856;DHT22;4464;50.882;4.730;2023-02-26T09:38:42;8.00;94.80
8856;DHT22;4464;50.882;4.730;2023-02-26T09:41:25;8.20;95.00
8856;DHT22;4464;50.882;4.730;2023-02-26T09:44:13;9.00;94.90
8856;DHT22;4464;50.882;4.730;2023-02-26T09:46:54;9.80;93.10
8856;DHT22;4464;50.882;4.730;2023-02-26T09:52:12;8.80;92.30
8856;DHT22;4464;50.882;4.730;2023-02-26T09:54:52;8.60;92.90
8856;DHT22;4464;50.882;4.730;2023-02-26T09:57:41;9.20;93.20
8856;DHT22;4464;50.882;4.730;2023-02-26T10:00:21;9.90;91.70
8856;DHT22;4464;50.882;4.730;2023-02-26T10:12:02;10.00;86.80
8856;DHT22;4464;50.882;4.730;2023-02-26T10:17:05;10.20;88.30
8856;DHT22;4464;50.882;4.730;2023-02-26T10:19:39;10.80;86.80
8856;DHT22;4464;50.882;4.730;2023-02-26T10:24:54;9.70;87.10
8856;DHT22;4464;50.882;4.730;2023-02-26T10:27:50;8.40;88.10
8856;DHT22;4464;50.882;4.730;2023-02-26T10:30:41;8.70;89.10
8856;DHT22;4464;50.882;4.730;2023-02-26T10:36:01;10.70;85.80
8856;DHT22;4464;50.882;4.730;2023-02-26T10:38:31;10.30;84.20
8856;DHT22;4464;50.882;4.730;2023-02-26T10:41:04;9.70;84.70
8856;DHT22;4464;50.882;4.730;2023-02-26T10:43:46;9.00;87.20
8856;DHT22;4464;50.882;4.730;2023-02-26T10:52:04;7.30;87.20
8856;DHT22;4464;50.882;4.730;2023-02-26T10:54:41;7.20;89.70
8856;DHT22;4464;50.882;4.730;2023-02-26T10:57:23;8.70;88.50
8856;DHT22;4464;50.882;4.730;2023-02-26T10:59:50;10.10;84.30
8856;DHT22;4464;50.882;4.730;2023-02-26T11:02:46;10.50;82.00
8856;DHT22;4464;50.882;4.730;2023-02-26T11:05:17;11.10;81.30
8856;DHT22;4464;50.882;4.730;2023-02-26T11:07:49;10.30;78.90
8856;DHT22;4464;50.882;4.730;2023-02-26T11:10:19;9.50;81.90
8856;DHT22;4464;50.882;4.730;2023-02-26T11:12:45;9.70;84.40
8856;DHT22;4464;50.882;4.730;2023-02-26T11:15:16;11.40;81.70
8856;DHT22;4464;50.882;4.730;2023-02-26T11:17:45;12.60;78.80
8856;DHT22;4464;50.882;4.730;2023-02-26T11:20:33;13.10;76.20
8856;DHT22;4464;50.882;4.730;2023-02-26T11:23:00;13.10;76.20
8856;DHT22;4464;50.882;4.730;2023-02-26T11:25:31;13.50;74.30
8856;DHT22;4464;50.882;4.730;2023-02-26T11:28:01;13.40;72.20
8856;DHT22;4464;50.882;4.730;2023-02-26T11:30:31;14.30;73.10
8856;DHT22;4464;50.882;4.730;2023-02-26T11:33:02;14.70;71.30
8856;DHT22;4464;50.882;4.730;2023-02-26T11:35:28;15.70;68.50
8856;DHT22;4464;50.882;4.730;2023-02-26T11:37:58;15.20;67.30
8856;DHT22;4464;50.882;4.730;2023-02-26T11:40:38;14.90;66.70
8856;DHT22;4464;50.882;4.730;2023-02-26T11:43:07;14.50;68.30
8856;DHT22;4464;50.882;4.730;2023-02-26T11:45:40;14.50;66.40
8856;DHT22;4464;50.882;4.730;2023-02-26T11:48:13;13.90;67.70
8856;DHT22;4464;50.882;4.730;2023-02-26T11:50:43;13.30;66.80
8856;DHT22;4464;50.882;4.730;2023-02-26T11:53:56;14.10;67.70
8856;DHT22;4464;50.882;4.730;2023-02-26T11:59:16;14.30;65.80
8856;DHT22;4464;50.882;4.730;2023-02-26T12:01:42;14.40;67.30
8856;DHT22;4464;50.882;4.730;2023-02-26T12:04:11;15.30;67.10
8856;DHT22;4464;50.882;4.730;2023-02-26T12:06:37;15.70;64.60
8856;DHT22;4464;50.882;4.730;2023-02-26T12:09:13;15.80;64.10
8856;DHT22;4464;50.882;4.730;2023-02-26T12:26:16;10.80;67.00
8856;DHT22;4464;50.882;4.730;2023-02-26T12:29:13;9.20;70.00
8856;DHT22;4464;50.882;4.730;2023-02-26T12:35:02;7.50;74.80
8856;DHT22;4464;50.882;4.730;2023-02-26T12:43:59;8.90;75.60
8856;DHT22;4464;50.882;4.730;2023-02-26T12:48:59;7.60;77.30
8856;DHT22;4464;50.882;4.730;2023-02-26T12:54:36;8.30;76.40
8856;DHT22;4464;50.882;4.730;2023-02-26T13:05:43;10.10;69.20
8856;DHT22;4464;50.882;4.730;2023-02-26T13:14:10;15.30;62.90
8856;DHT22;4464;50.882;4.730;2023-02-26T13:17:35;13.70;59.10
8856;DHT22;4464;50.882;4.730;2023-02-26T13:19:47;13.00;59.90
8856;DHT22;4464;50.882;4.730;2023-02-26T13:22:28;12.90;60.80
8856;DHT22;4464;50.882;4.730;2023-02-26T13:25:55;14.20;60.00
8856;DHT22;4464;50.882;4.730;2023-02-26T13:28:11;14.80;58.40
8856;DHT22;4464;50.882;4.730;2023-02-26T13:30:47;15.00;57.30
8856;DHT22;4464;50.882;4.730;2023-02-26T13:33:29;14.80;58.40
8856;DHT22;4464;50.882;4.730;2023-02-26T13:35:55;14.80;58.60
8856;DHT22;4464;50.882;4.730;2023-02-26T13:38:45;14.70;58.20
8856;DHT22;4464;50.882;4.730;2023-02-26T13:43:49;15.60;60.30
8856;DHT22;4464;50.882;4.730;2023-02-26T13:51:42;15.50;57.40
8856;DHT22;4464;50.882;4.730;2023-02-26T14:06:56;14.70;56.60
8856;DHT22;4464;50.882;4.730;2023-02-26T14:14:32;14.30;55.20
8856;DHT22;4464;50.882;4.730;2023-02-26T14:22:49;15.20;54.70
8856;DHT22;4464;50.882;4.730;2023-02-26T14:27:43;14.90;55.70
8856;DHT22;4464;50.882;4.730;2023-02-26T14:35:44;14.60;54.20
8856;DHT22;4464;50.882;4.730;2023-02-26T14:38:22;15.00;55.10
8856;DHT22;4464;50.882;4.730;2023-02-26T14:40:54;15.10;55.50
8856;DHT22;4464;50.882;4.730;2023-02-26T14:43:37;15.40;55.10
8856;DHT22;4464;50.882;4.730;2023-02-26T14:46:04;13.80;54.10
8856;DHT22;4464;50.882;4.730;2023-02-26T14:48:32;13.80;55.70
8856;DHT22;4464;50.882;4.730;2023-02-26T14:59:10;15.10;55.40
8856;DHT22;4464;50.882;4.730;2023-02-26T15:12:14;15.30;56.60
8856;DHT22;4464;50.882;4.730;2023-02-26T15:14:58;15.00;54.90
8856;DHT22;4464;50.882;4.730;2023-02-26T15:25:56;13.80;54.80
8856;DHT22;4464;50.882;4.730;2023-02-26T15:28:29;12.90;55.50
8856;DHT22;4464;50.882;4.730;2023-02-26T15:30:59;13.20;56.10
8856;DHT22;4464;50.882;4.730;2023-02-26T15:33:25;13.90;56.50
8856;DHT22;4464;50.882;4.730;2023-02-26T15:35:55;14.60;55.30
8856;DHT22;4464;50.882;4.730;2023-02-26T15:38:22;15.00;55.50
8856;DHT22;4464;50.882;4.730;2023-02-26T15:40:51;15.20;55.70
8856;DHT22;4464;50.882;4.730;2023-02-26T15:43:23;14.90;54.20
8856;DHT22;4464;50.882;4.730;2023-02-26T15:45:56;14.50;54.60
8856;DHT22;4464;50.882;4.730;2023-02-26T15:48:29;14.10;54.90
8856;DHT22;4464;50.882;4.730;2023-02-26T15:51:00;13.70;55.40
8856;DHT22;4464;50.882;4.730;2023-02-26T15:53:34;14.10;54.80
8856;DHT22;4464;50.882;4.730;2023-02-26T15:56:04;14.30;55.10
8856;DHT22;4464;50.882;4.730;2023-02-26T15:58:45;14.30;55.20
8856;DHT22;4464;50.882;4.730;2023-02-26T16:01:30;14.80;54.60
8856;DHT22;4464;50.882;4.730;2023-02-26T16:03:59;14.20;54.50
8856;DHT22;4464;50.882;4.730;2023-02-26T16:06:34;12.70;55.40
8856;DHT22;4464;50.882;4.730;2023-02-26T16:09:01;13.00;57.60
8856;DHT22;4464;50.882;4.730;2023-02-26T16:11:33;13.30;55.30
8856;DHT22;4464;50.882;4.730;2023-02-26T16:14:02;13.40;56.70
8856;DHT22;4464;50.882;4.730;2023-02-26T16:16:43;13.20;55.70
8856;DHT22;4464;50.882;4.730;2023-02-26T16:19:15;12.90;56.20
8856;DHT22;4464;50.882;4.730;2023-02-26T16:21:41;12.50;57.00
8856;DHT22;4464;50.882;4.730;2023-02-26T16:24:14;12.70;57.70
8856;DHT22;4464;50.882;4.730;2023-02-26T16:26:46;12.30;58.00
8856;DHT22;4464;50.882;4.730;2023-02-26T16:29:17;12.80;57.80
8856;DHT22;4464;50.882;4.730;2023-02-26T16:31:48;12.40;58.00
8856;DHT22;4464;50.882;4.730;2023-02-26T16:34:39;11.20;58.00
8856;DHT22;4464;50.882;4.730;2023-02-26T16:43:28;8.20;65.70
8856;DHT22;4464;50.882;4.730;2023-02-26T16:45:45;7.50;66.80
8856;DHT22;4464;50.882;4.730;2023-02-26T16:48:27;7.20;68.30
8856;DHT22;4464;50.882;4.730;2023-02-26T16:51:01;6.90;69.90
8856;DHT22;4464;50.882;4.730;2023-02-26T16:53:52;6.70;71.00
8856;DHT22;4464;50.882;4.730;2023-02-26T16:56:24;6.50;69.80
8856;DHT22;4464;50.882;4.730;2023-02-26T16:59:09;6.20;71.10
8856;DHT22;4464;50.882;4.730;2023-02-26T17:04:30;6.00;73.40
8856;DHT22;4464;50.882;4.730;2023-02-26T17:06:57;6.00;73.80
8856;DHT22;4464;50.882;4.730;2023-02-26T17:14:46;5.70;74.90
8856;DHT22;4464;50.882;4.730;2023-02-26T17:17:18;5.60;75.20
8856;DHT22;4464;50.882;4.730;2023-02-26T17:19:44;5.60;75.00
8856;DHT22;4464;50.882;4.730;2023-02-26T17:22:13;5.50;75.50
8856;DHT22;4464;50.882;4.730;2023-02-26T17:24:42;5.40;76.40
8856;DHT22;4464;50.882;4.730;2023-02-26T17:27:17;5.30;76.60
8856;DHT22;4464;50.882;4.730;2023-02-26T17:29:49;5.30;77.10
8856;DHT22;4464;50.882;4.730;2023-02-26T17:34:43;5.20;77.90
8856;DHT22;4464;50.882;4.730;2023-02-26T17:37:13;5.10;78.10
8856;DHT22;4464;50.882;4.730;2023-02-26T17:39:42;5.10;79.30
8856;DHT22;4464;50.882;4.730;2023-02-26T17:42:10;4.90;79.10
8856;DHT22;4464;50.882;4.730;2023-02-26T17:44:36;5.00;79.50
8856;DHT22;4464;50.882;4.730;2023-02-26T17:47:01;5.00;79.70
8856;DHT22;4464;50.882;4.730;2023-02-26T17:49:27;4.90;80.00
8856;DHT22;4464;50.882;4.730;2023-02-26T17:51:55;4.80;80.30
8856;DHT22;4464;50.882;4.730;2023-02-26T17:54:24;4.70;80.80
8856;DHT22;4464;50.882;4.730;2023-02-26T17:56:49;4.80;82.10
8856;DHT22;4464;50.882;4.730;2023-02-26T17:59:17;4.70;81.60
8856;DHT22;4464;50.882;4.730;2023-02-26T18:01:43;4.70;81.60
8856;DHT22;4464;50.882;4.730;2023-02-26T18:04:09;4.70;81.90
8856;DHT22;4464;50.882;4.730;2023-02-26T18:06:36;4.50;81.90
8856;DHT22;4464;50.882;4.730;2023-02-26T18:09:03;4.50;82.70
8856;DHT22;4464;50.882;4.730;2023-02-26T18:11:31;4.40;83.00
8856;DHT22;4464;50.882;4.730;2023-02-26T18:13:59;4.50;84.10
8856;DHT22;4464;50.882;4.730;2023-02-26T18:16:34;4.40;83.40
8856;DHT22;4464;50.882;4.730;2023-02-26T18:19:00;4.40;83.40
8856;DHT22;4464;50.882;4.730;2023-02-26T18:21:26;4.40;83.70
8856;DHT22;4464;50.882;4.730;2023-02-26T18:23:53;4.30;84.20
8856;DHT22;4464;50.882;4.730;2023-02-26T18:26:22;4.30;85.00
8856;DHT22;4464;50.882;4.730;2023-02-26T18:28:52;4.30;84.70
8856;DHT22;4464;50.882;4.730;2023-02-26T18:31:20;4.30;84.00
8856;DHT22;4464;50.882;4.730;2023-02-26T18:33:49;4.30;84.60
8856;DHT22;4464;50.882;4.730;2023-02-26T18:36:27;4.30;85.00
8856;DHT22;4464;50.882;4.730;2023-02-26T18:39:09;4.10;84.80
8856;DHT22;4464;50.882;4.730;2023-02-26T18:41:38;4.00;85.00
8856;DHT22;4464;50.882;4.730;2023-02-26T18:44:04;4.00;85.80
8856;DHT22;4464;50.882;4.730;2023-02-26T18:46:33;4.00;86.20
8856;DHT22;4464;50.882;4.730;2023-02-26T18:49:18;4.10;86.70
8856;DHT22;4464;50.882;4.730;2023-02-26T18:51:44;4.00;86.50
8856;DHT22;4464;50.882;4.730;2023-02-26T18:54:10;4.00;87.20
8856;DHT22;4464;50.882;4.730;2023-02-26T18:56:36;4.00;87.00
8856;DHT22;4464;50.882;4.730;2023-02-26T18:59:02;4.00;87.10
8856;DHT22;4464;50.882;4.730;2023-02-26T19:01:28;4.00;86.90
8856;DHT22;4464;50.882;4.730;2023-02-26T19:03:56;4.00;87.40
8856;DHT22;4464;50.882;4.730;2023-02-26T19:06:22;3.90;87.80
8856;DHT22;4464;50.882;4.730;2023-02-26T19:08:48;3.90;88.60
8856;DHT22;4464;50.882;4.730;2023-02-26T19:11:14;3.90;88.70
8856;DHT22;4464;50.882;4.730;2023-02-26T19:13:39;3.80;88.70
8856;DHT22;4464;50.882;4.730;2023-02-26T19:16:05;3.70;88.90
8856;DHT22;4464;50.882;4.730;2023-02-26T19:18:32;3.70;89.40
8856;DHT22;4464;50.882;4.730;2023-02-26T19:20:57;3.60;89.90
8856;DHT22;4464;50.882;4.730;2023-02-26T19:23:23;3.50;90.00
8856;DHT22;4464;50.882;4.730;2023-02-26T19:25:55;3.50;90.30
8856;DHT22;4464;50.882;4.730;2023-02-26T19:28:20;3.50;90.40
8856;DHT22;4464;50.882;4.730;2023-02-26T19:30:46;3.60;90.70
8856;DHT22;4464;50.882;4.730;2023-02-26T19:33:12;3.50;90.50
8856;DHT22;4464;50.882;4.730;2023-02-26T19:35:38;3.40;90.30
8856;DHT22;4464;50.882;4.730;2023-02-26T19:38:04;3.40;90.70
8856;DHT22;4464;50.882;4.730;2023-02-26T19:40:29;3.30;90.90
8856;DHT22;4464;50.882;4.730;2023-02-26T19:42:55;3.30;91.00
8856;DHT22;4464;50.882;4.730;2023-02-26T19:45:21;3.30;91.00
8856;DHT22;4464;50.882;4.730;2023-02-26T19:47:47;3.20;91.00
8856;DHT22;4464;50.882;4.730;2023-02-26T19:50:13;3.10;91.50
8856;DHT22;4464;50.882;4.730;2023-02-26T19:52:39;3.10;91.40
8856;DHT22;4464;50.882;4.730;2023-02-26T19:55:08;3.10;91.90
8856;DHT22;4464;50.882;4.730;2023-02-26T19:57:38;2.90;91.70
8856;DHT22;4464;50.882;4.730;2023-02-26T20:00:05;3.00;92.10
8856;DHT22;4464;50.882;4.730;2023-02-26T20:02:31;2.80;92.10
8856;DHT22;4464;50.882;4.730;2023-02-26T20:04:57;2.80;92.20